Airfield :
LOGIN :

Register | Disclaimer

   EN    FR    IT 

 










Legend :    VFR   Marginal VFR   IFR   Intensive IFR   Very Intensive IFR
Visi :
Ceiling :
>= 8 km
>= 3000ft
5 to 8 km
1000 to 3000 ft
1500m to 5 km
500 to 1000 ft
800 to 1500m
200 to 500 ft
< 800m
< 200 ft
Symbols :   Thunderstorms  Fog  Heavy snow  Heavy precipitations  Wind > 20 kt
SIGMETs :     Misc.  Thunderstorms  Icing  Turbulence  Mountain Waves  Volcanic Ashes






- Airport Elevation : 162 ft
- IATA code : BOD


LFBD - Bordeaux / Merignac

CURRENT METAR :
  • 171130Z AUTO 33004KT 290V050 9999 BKN048 BKN060 15/03 Q1020 NOSIG

EXPIRED METARs :
  • 171100Z AUTO 32009KT 280V350 9999 BKN045 BKN054 14/05 Q1020 NOSIG
  • 171030Z AUTO 35010KT 300V050 9999 FEW042 14/04 Q1020 NOSIG
  • 171000Z AUTO 34007KT 300V060 9999 FEW035 14/04 Q1020 NOSIG
  • 170930Z AUTO 33009KT 9999 SCT035 BKN046 BKN052 13/04 Q1021 NOSIG
  • 170900Z AUTO 36009KT 330V040 9999 FEW030 13/06 Q1021 NOSIG
  • 170830Z AUTO 36010KT 330V030 9999 FEW027 12/06 Q1021 NOSIG
  • 170800Z AUTO 35008KT 320V040 9999 FEW021 11/06 Q1021 NOSIG
  • 170730Z AUTO 03008KT 350V060 9999 FEW019 11/07 Q1021 NOSIG
  • 170700Z AUTO 02007KT CAVOK 10/07 Q1020 TEMPO 4500 -SHRA BKN035TCU
  • 170630Z AUTO 36006KT 330V040 CAVOK 10/07 Q1020 TEMPO 4500 -SHRA BKN035TCU

TAF TAF LFBD
Valid from the 17 at 12:00 until the 18 at 18:00 UTC


171100Z 1712/1818 31010KT 9999 SCT030 TX17/1714Z TN07/1806Z
PROB40
TEMPO 1722/1802 4000 -SHRA BKN030TCU
BECMG 1803/1805 VRB03KT
BECMG 1806/1808 24005KT
TEMPO 1808/1811 2500 RA BKN010 BKN015TCU
BECMG 1811/1813 03010KT
ATIS : +33 5 57 92 81 04



MET'MAP, your aeronautical weather chart ! - Copyright ORBIFLY December 2007 - Disclaimer

ORBIFLY MET'MAP TEAM :

Programming & Development : Alexandra Zaïnal
Original concept : Baudouin d'Aumeries
Technical & hardware support : Manuel Goepfert
Assistance : Marc-Olivier Méhu




SOURCES & CREDITS :

   NOAA